METAR Data
IDs: Format: Raw Decoded Include TAF

Data at: 0833 UTC 01 Aug 2021

KBNW 010815Z AUTO 33009G15KT 10SM CLR 18/14 A3010 RMK AO2